createdAt,value
2022-07-31T00:00:16.284Z,99.90
2022-07-31T00:02:44.506Z,99.90
2022-07-31T00:05:11.691Z,99.90
2022-07-31T00:07:39.025Z,99.90
2022-07-31T00:10:06.702Z,99.90
2022-07-31T00:12:36.648Z,99.90
2022-07-31T00:15:05.705Z,99.90
2022-07-31T00:17:33.428Z,99.90
2022-07-31T00:20:00.826Z,99.90
2022-07-31T00:22:27.995Z,99.90
2022-07-31T00:24:55.163Z,99.90
2022-07-31T00:27:23.480Z,99.90
2022-07-31T00:29:51.134Z,99.90
2022-07-31T00:32:18.347Z,99.90
2022-07-31T00:34:45.708Z,99.90
2022-07-31T00:37:12.922Z,99.90
2022-07-31T00:39:40.312Z,99.90
2022-07-31T00:42:17.372Z,99.90
2022-07-31T00:44:44.581Z,99.90
2022-07-31T00:47:15.447Z,99.90
2022-07-31T00:49:42.745Z,99.90
2022-07-31T00:52:10.027Z,99.90
2022-07-31T00:54:37.297Z,99.90
2022-07-31T00:57:05.648Z,99.90
2022-07-31T00:59:33.220Z,99.90
2022-07-31T01:02:00.485Z,99.90
2022-07-31T01:04:27.836Z,99.90
2022-07-31T01:07:00.656Z,99.90
2022-07-31T01:09:28.286Z,99.90
2022-07-31T01:12:14.013Z,99.90
2022-07-31T01:14:47.639Z,99.90
2022-07-31T01:17:15.478Z,99.90
2022-07-31T01:19:44.696Z,99.90
2022-07-31T01:22:33.031Z,99.90
2022-07-31T01:25:33.043Z,99.90
2022-07-31T01:28:24.229Z,99.90
2022-07-31T01:31:25.523Z,99.90
2022-07-31T01:34:03.743Z,99.90
2022-07-31T01:36:34.789Z,99.90
2022-07-31T01:39:03.069Z,99.90
2022-07-31T01:41:34.326Z,99.90
2022-07-31T01:44:01.606Z,99.90
2022-07-31T01:46:28.894Z,99.90
2022-07-31T01:48:56.262Z,99.90
2022-07-31T01:51:23.925Z,99.90
2022-07-31T01:53:51.118Z,99.90
2022-07-31T01:56:18.748Z,99.90
2022-07-31T01:58:46.680Z,99.90
2022-07-31T02:01:31.092Z,99.90
2022-07-31T02:04:00.646Z,99.90
2022-07-31T02:06:30.342Z,99.90
2022-07-31T02:08:58.130Z,99.90
2022-07-31T02:11:25.363Z,99.90
2022-07-31T02:13:53.331Z,99.90
2022-07-31T02:16:21.805Z,99.90
2022-07-31T02:18:53.165Z,99.90
2022-07-31T02:21:25.914Z,99.90
2022-07-31T02:23:53.530Z,99.90
2022-07-31T02:26:20.734Z,99.90
2022-07-31T02:28:47.927Z,99.90
2022-07-31T02:31:15.284Z,99.90
2022-07-31T02:33:45.949Z,99.90
2022-07-31T02:36:13.987Z,99.90
2022-07-31T02:38:41.327Z,99.90
2022-07-31T02:41:08.971Z,99.90
2022-07-31T02:43:36.191Z,99.90
2022-07-31T02:46:14.805Z,99.90
2022-07-31T02:48:42.039Z,99.90
2022-07-31T02:51:12.304Z,99.90
2022-07-31T02:53:41.470Z,99.90
2022-07-31T02:56:09.933Z,99.90
2022-07-31T02:58:41.761Z,99.90
2022-07-31T03:01:10.463Z,99.90
2022-07-31T03:03:38.496Z,99.90
2022-07-31T03:06:05.738Z,99.90
2022-07-31T03:08:33.650Z,99.90
2022-07-31T03:11:04.489Z,99.90
2022-07-31T03:13:32.011Z,99.90
2022-07-31T03:15:59.647Z,99.90
2022-07-31T03:18:26.902Z,99.90
2022-07-31T03:20:54.675Z,99.90
2022-07-31T03:23:24.378Z,99.90
2022-07-31T03:25:56.810Z,99.90
2022-07-31T03:28:23.991Z,99.90
2022-07-31T03:30:51.792Z,99.90
2022-07-31T03:33:24.956Z,99.90
2022-07-31T03:35:53.175Z,99.90
2022-07-31T03:38:34.964Z,99.90
2022-07-31T03:41:09.090Z,99.90
2022-07-31T03:43:47.497Z,99.90
2022-07-31T03:46:19.418Z,99.90
2022-07-31T03:48:47.647Z,99.90
2022-07-31T03:51:14.921Z,99.90
2022-07-31T03:53:42.638Z,99.90
2022-07-31T03:56:15.104Z,99.90
2022-07-31T03:58:42.375Z,99.90
2022-07-31T04:01:15.572Z,99.90
2022-07-31T04:03:42.902Z,99.90
2022-07-31T04:06:31.348Z,99.90
2022-07-31T04:09:01.423Z,99.90
2022-07-31T04:11:42.991Z,99.90
2022-07-31T04:14:11.028Z,99.90
2022-07-31T04:16:38.312Z,99.90
2022-07-31T04:19:05.522Z,99.90
2022-07-31T04:21:32.735Z,99.90
2022-07-31T04:24:00.129Z,99.90
2022-07-31T04:26:33.203Z,99.90
2022-07-31T04:29:02.698Z,99.90
2022-07-31T04:31:30.031Z,99.90
2022-07-31T04:33:57.465Z,99.90
2022-07-31T04:36:30.069Z,99.90
2022-07-31T04:39:01.476Z,99.90
2022-07-31T04:41:29.620Z,99.90
2022-07-31T04:43:59.642Z,99.90
2022-07-31T04:46:30.783Z,99.90
2022-07-31T04:48:58.124Z,99.90
2022-07-31T04:51:27.090Z,99.90
2022-07-31T04:53:54.529Z,99.90
2022-07-31T04:56:35.815Z,99.90
2022-07-31T04:59:22.235Z,99.90
2022-07-31T05:01:50.352Z,99.90
2022-07-31T05:04:21.585Z,99.90
2022-07-31T05:06:50.075Z,99.90
2022-07-31T05:09:25.343Z,99.90
2022-07-31T05:11:55.925Z,99.90
2022-07-31T05:14:23.283Z,99.90
2022-07-31T05:16:50.830Z,99.90
2022-07-31T05:19:18.546Z,99.90
2022-07-31T05:22:05.426Z,99.90
2022-07-31T05:24:34.140Z,99.90
2022-07-31T05:27:10.676Z,99.90
2022-07-31T05:29:40.565Z,99.90
2022-07-31T05:32:07.759Z,99.90
2022-07-31T05:34:37.071Z,99.90
2022-07-31T05:37:04.618Z,99.90
2022-07-31T05:39:33.635Z,99.90
2022-07-31T05:42:19.661Z,99.90
2022-07-31T05:45:05.890Z,99.90
2022-07-31T05:47:40.301Z,99.90
2022-07-31T05:50:08.390Z,99.90
2022-07-31T05:52:35.561Z,99.90
2022-07-31T05:55:13.058Z,99.90
2022-07-31T05:57:59.387Z,99.90
2022-07-31T06:00:28.230Z,99.90
2022-07-31T06:02:56.989Z,99.90
2022-07-31T06:05:44.180Z,99.90
2022-07-31T06:08:12.254Z,99.90
2022-07-31T06:10:43.268Z,99.90
2022-07-31T06:13:11.329Z,99.90
2022-07-31T06:15:38.681Z,99.90
2022-07-31T06:18:10.378Z,99.90
2022-07-31T06:20:37.814Z,99.90
2022-07-31T06:23:20.042Z,99.90
2022-07-31T06:25:53.254Z,99.90
2022-07-31T06:28:20.903Z,99.90
2022-07-31T06:30:58.458Z,99.90
2022-07-31T06:33:37.070Z,99.90
2022-07-31T06:36:05.335Z,99.90
2022-07-31T06:38:38.004Z,99.90
2022-07-31T06:41:49.453Z,99.90
2022-07-31T06:44:49.004Z,99.90
2022-07-31T06:47:34.544Z,99.90
2022-07-31T06:50:05.639Z,99.90
2022-07-31T06:52:41.753Z,99.90
2022-07-31T06:55:09.283Z,99.90
2022-07-31T06:57:37.743Z,99.90
2022-07-31T07:00:19.900Z,99.90
2022-07-31T07:02:48.209Z,99.90
2022-07-31T07:05:15.934Z,99.90
2022-07-31T07:07:43.190Z,99.90
2022-07-31T07:10:10.465Z,99.90
2022-07-31T07:12:57.891Z,99.90
2022-07-31T07:15:25.573Z,99.90
2022-07-31T07:17:52.870Z,99.90
2022-07-31T07:20:28.517Z,99.90
2022-07-31T07:22:56.339Z,99.90
2022-07-31T07:25:36.347Z,99.90
2022-07-31T07:28:03.811Z,99.90
2022-07-31T07:30:31.462Z,99.90
2022-07-31T07:33:02.830Z,99.90
2022-07-31T07:35:33.913Z,99.90
2022-07-31T07:38:03.389Z,99.90
2022-07-31T07:40:31.163Z,99.90
2022-07-31T07:43:02.808Z,99.90
2022-07-31T07:45:30.927Z,99.90
2022-07-31T07:48:06.446Z,99.90
2022-07-31T07:50:47.383Z,99.90
2022-07-31T07:53:25.866Z,99.90
2022-07-31T07:56:22.133Z,99.90
2022-07-31T07:59:15.269Z,99.90
2022-07-31T08:02:00.936Z,99.90
2022-07-31T08:04:30.950Z,99.90
2022-07-31T08:06:58.158Z,99.90
2022-07-31T08:09:30.015Z,99.90
2022-07-31T08:12:16.106Z,99.90
2022-07-31T08:15:02.376Z,99.90
2022-07-31T08:17:52.817Z,99.90
2022-07-31T08:20:22.330Z,99.90
2022-07-31T08:22:51.265Z,99.90
2022-07-31T08:25:18.454Z,99.90
2022-07-31T08:27:48.014Z,99.90
2022-07-31T08:30:15.870Z,99.90
2022-07-31T08:32:43.187Z,99.90
2022-07-31T08:35:20.670Z,99.90
2022-07-31T08:37:51.638Z,99.90
2022-07-31T08:40:34.965Z,99.90
2022-07-31T08:44:00.775Z,99.90
2022-07-31T08:46:02.508Z,99.90
2022-07-31T08:48:33.203Z,99.90
2022-07-31T08:51:03.810Z,99.90
2022-07-31T08:53:52.938Z,99.90
2022-07-31T08:56:20.784Z,99.90
2022-07-31T08:58:48.003Z,99.90
2022-07-31T09:01:15.262Z,99.90
2022-07-31T09:03:42.590Z,99.90
2022-07-31T09:06:12.728Z,99.90
2022-07-31T09:08:39.952Z,99.90
2022-07-31T09:11:10.590Z,99.90
2022-07-31T09:14:01.439Z,99.90
2022-07-31T09:16:46.510Z,99.90
2022-07-31T09:19:52.431Z,99.90
2022-07-31T09:22:10.231Z,99.90
2022-07-31T09:24:39.789Z,99.90
2022-07-31T09:27:09.283Z,99.90
2022-07-31T09:29:37.783Z,99.90
2022-07-31T09:32:10.512Z,99.90
2022-07-31T09:35:11.680Z,99.90
2022-07-31T09:37:39.306Z,99.20
2022-07-31T09:40:57.120Z,99.70
2022-07-31T09:43:25.947Z,96.60
2022-07-31T09:45:59.758Z,95.30
2022-07-31T09:48:28.896Z,96.00
2022-07-31T09:51:01.287Z,95.00
2022-07-31T09:53:51.803Z,93.80
2022-07-31T09:56:46.727Z,93.90
2022-07-31T09:59:14.110Z,92.30
2022-07-31T10:01:41.799Z,91.50
2022-07-31T10:04:09.028Z,91.30
2022-07-31T10:06:36.497Z,90.80
2022-07-31T10:09:04.535Z,88.20
2022-07-31T10:11:50.623Z,88.60
2022-07-31T10:14:28.547Z,88.30
2022-07-31T10:16:57.003Z,80.50
2022-07-31T10:19:38.391Z,82.70
2022-07-31T10:22:19.985Z,82.90
2022-07-31T10:24:48.919Z,81.70
2022-07-31T10:27:17.281Z,84.40
2022-07-31T10:29:45.352Z,80.90
2022-07-31T10:32:12.678Z,80.00
2022-07-31T10:34:54.469Z,79.20
2022-07-31T10:37:40.066Z,79.50
2022-07-31T10:40:59.991Z,78.70
2022-07-31T10:43:29.332Z,80.20
2022-07-31T10:46:09.474Z,78.70
2022-07-31T10:48:53.813Z,76.80
2022-07-31T10:51:51.895Z,76.30
2022-07-31T10:54:40.960Z,77.00
2022-07-31T10:57:33.171Z,73.40
2022-07-31T11:00:29.554Z,71.90
2022-07-31T11:03:22.839Z,73.70
2022-07-31T11:06:08.562Z,72.00
2022-07-31T11:09:01.402Z,72.70
2022-07-31T11:11:47.303Z,73.10
2022-07-31T11:14:40.308Z,72.40
2022-07-31T11:18:21.078Z,71.90
2022-07-31T11:20:30.771Z,72.30
2022-07-31T11:23:00.215Z,72.30
2022-07-31T11:25:31.288Z,73.40
2022-07-31T11:28:09.574Z,73.30
2022-07-31T11:30:54.130Z,72.60
2022-07-31T11:33:42.221Z,70.40
2022-07-31T11:36:17.859Z,72.10
2022-07-31T11:38:47.466Z,69.50
2022-07-31T11:41:15.133Z,70.50
2022-07-31T11:43:49.606Z,69.40
2022-07-31T11:46:31.859Z,69.60
2022-07-31T11:49:00.093Z,69.20
2022-07-31T11:51:27.563Z,69.00
2022-07-31T11:53:56.778Z,70.00
2022-07-31T11:56:26.066Z,69.70
2022-07-31T11:58:54.955Z,65.90
2022-07-31T12:01:29.800Z,69.80
2022-07-31T12:03:57.531Z,69.20
2022-07-31T12:06:34.996Z,69.30
2022-07-31T12:09:04.082Z,69.30
2022-07-31T12:11:31.246Z,69.50
2022-07-31T12:13:59.385Z,68.70
2022-07-31T12:16:26.696Z,68.30
2022-07-31T12:19:00.550Z,68.10
2022-07-31T12:21:35.215Z,68.20
2022-07-31T12:24:02.763Z,69.00
2022-07-31T12:26:33.673Z,68.00
2022-07-31T12:29:05.011Z,66.70
2022-07-31T12:31:45.895Z,68.10
2022-07-31T12:34:28.746Z,68.30
2022-07-31T12:37:06.204Z,66.60
2022-07-31T12:39:59.711Z,67.80
2022-07-31T12:42:41.011Z,67.60
2022-07-31T12:45:19.435Z,68.80
2022-07-31T12:47:51.355Z,69.00
2022-07-31T12:50:20.701Z,70.00
2022-07-31T12:52:47.876Z,69.20
2022-07-31T12:55:17.281Z,69.70
2022-07-31T12:57:50.512Z,70.40
2022-07-31T13:00:23.537Z,70.40
2022-07-31T13:02:51.876Z,70.40
2022-07-31T13:05:19.254Z,69.10
2022-07-31T13:07:46.725Z,66.50
2022-07-31T13:10:19.793Z,64.70
2022-07-31T13:12:52.355Z,65.00
2022-07-31T13:15:22.581Z,64.60
2022-07-31T13:17:50.508Z,64.70
2022-07-31T13:20:18.576Z,65.00
2022-07-31T13:22:45.738Z,64.10
2022-07-31T13:25:12.971Z,63.60
2022-07-31T13:27:41.581Z,62.20
2022-07-31T13:30:09.813Z,58.00
2022-07-31T13:32:37.058Z,56.30
2022-07-31T13:35:27.235Z,57.30
2022-07-31T13:37:53.540Z,56.30
2022-07-31T13:40:40.712Z,57.40
2022-07-31T13:43:08.041Z,59.00
2022-07-31T13:45:35.256Z,59.60
2022-07-31T13:48:05.629Z,60.00
2022-07-31T13:50:37.214Z,60.10
2022-07-31T13:53:04.599Z,60.30
2022-07-31T13:55:31.922Z,61.80
2022-07-31T13:57:59.638Z,61.50
2022-07-31T14:00:29.191Z,61.30
2022-07-31T14:02:57.114Z,59.20
2022-07-31T14:05:26.504Z,61.60
2022-07-31T14:07:55.462Z,60.60
2022-07-31T14:10:23.160Z,60.80
2022-07-31T14:12:50.424Z,58.60
2022-07-31T14:15:18.291Z,58.80
2022-07-31T14:17:45.781Z,59.90
2022-07-31T14:20:13.355Z,59.40
2022-07-31T14:22:40.988Z,59.10
2022-07-31T14:25:09.308Z,59.30
2022-07-31T14:27:38.470Z,60.70
2022-07-31T14:30:09.262Z,61.10
2022-07-31T14:32:36.521Z,60.90
2022-07-31T14:35:08.002Z,62.30
2022-07-31T14:37:36.121Z,62.10
2022-07-31T14:40:04.921Z,62.60
2022-07-31T14:42:32.377Z,62.60
2022-07-31T14:44:59.845Z,61.90
2022-07-31T14:47:27.027Z,61.00
2022-07-31T14:50:07.192Z,60.20
2022-07-31T14:52:37.225Z,57.90
2022-07-31T14:55:05.625Z,57.60
2022-07-31T14:57:32.799Z,59.20
2022-07-31T15:00:00.044Z,59.00
2022-07-31T15:02:27.352Z,58.80
2022-07-31T15:04:54.562Z,59.40
2022-07-31T15:07:43.614Z,60.20
2022-07-31T15:10:10.291Z,60.60
2022-07-31T15:12:37.602Z,60.70
2022-07-31T15:15:05.888Z,59.90
2022-07-31T15:17:33.050Z,60.00
2022-07-31T15:20:00.237Z,60.70
2022-07-31T15:22:27.494Z,61.50
2022-07-31T15:24:54.751Z,60.20
2022-07-31T15:27:22.260Z,61.00
2022-07-31T15:30:02.023Z,61.30
2022-07-31T15:32:34.713Z,60.90
2022-07-31T15:35:02.313Z,60.80
2022-07-31T15:37:30.219Z,61.00
2022-07-31T15:40:03.902Z,60.30
2022-07-31T15:42:37.965Z,61.10
2022-07-31T15:45:16.236Z,59.70
2022-07-31T15:47:43.621Z,60.10
2022-07-31T15:50:12.020Z,60.00
2022-07-31T15:52:39.590Z,60.50
2022-07-31T15:55:07.499Z,60.50
2022-07-31T15:57:34.735Z,60.10
2022-07-31T16:00:01.966Z,60.70
2022-07-31T16:02:38.054Z,60.70
2022-07-31T16:05:12.077Z,61.00
2022-07-31T16:08:32.920Z,60.70
2022-07-31T16:10:36.309Z,61.80
2022-07-31T16:13:03.659Z,60.70
2022-07-31T16:15:31.837Z,61.00
2022-07-31T16:17:59.022Z,62.60
2022-07-31T16:20:27.156Z,61.40
2022-07-31T16:23:01.092Z,62.00
2022-07-31T16:25:29.584Z,62.00
2022-07-31T16:27:59.565Z,62.90
2022-07-31T16:30:27.334Z,62.30
2022-07-31T16:32:54.948Z,62.20
2022-07-31T16:35:22.226Z,61.80
2022-07-31T16:37:50.878Z,60.70
2022-07-31T16:40:28.175Z,62.20
2022-07-31T16:43:48.649Z,62.70
2022-07-31T16:45:53.489Z,63.10
2022-07-31T16:48:20.748Z,62.60
2022-07-31T16:50:53.717Z,62.40
2022-07-31T16:54:13.289Z,61.50
2022-07-31T16:56:11.319Z,62.50
2022-07-31T16:58:38.598Z,62.00
2022-07-31T17:01:06.315Z,61.30
2022-07-31T17:04:01.297Z,62.50
2022-07-31T17:06:36.012Z,63.20
2022-07-31T17:09:16.346Z,62.60
2022-07-31T17:11:52.861Z,62.60
2022-07-31T17:14:21.900Z,62.80
2022-07-31T17:16:49.751Z,63.90
2022-07-31T17:19:42.333Z,63.70
2022-07-31T17:22:05.098Z,64.10
2022-07-31T17:24:36.511Z,64.00
2022-07-31T17:27:05.760Z,64.80
2022-07-31T17:29:33.288Z,64.40
2022-07-31T17:32:00.518Z,64.40
2022-07-31T17:34:27.759Z,64.40
2022-07-31T17:36:54.946Z,64.30
2022-07-31T17:39:22.175Z,64.30
2022-07-31T17:41:49.401Z,64.10
2022-07-31T17:44:16.561Z,64.10
2022-07-31T17:46:48.226Z,64.90
2022-07-31T17:49:19.357Z,65.10
2022-07-31T17:51:58.974Z,64.80
2022-07-31T17:54:31.279Z,65.30
2022-07-31T17:57:01.787Z,65.50
2022-07-31T17:59:29.086Z,65.40
2022-07-31T18:02:00.231Z,65.80
2022-07-31T18:04:31.877Z,65.90
2022-07-31T18:06:59.600Z,65.90
2022-07-31T18:09:26.965Z,67.00
2022-07-31T18:11:54.375Z,66.60
2022-07-31T18:14:24.498Z,66.90
2022-07-31T18:16:52.623Z,67.10
2022-07-31T18:19:23.075Z,67.60
2022-07-31T18:21:50.726Z,67.60
2022-07-31T18:24:18.487Z,67.80
2022-07-31T18:26:45.805Z,67.90
2022-07-31T18:29:13.057Z,68.10
2022-07-31T18:31:40.246Z,68.40
2022-07-31T18:34:07.480Z,68.70
2022-07-31T18:36:34.982Z,69.00
2022-07-31T18:39:03.062Z,69.20
2022-07-31T18:41:30.224Z,69.60
2022-07-31T18:43:57.649Z,70.00
2022-07-31T18:46:25.047Z,70.20
2022-07-31T18:48:55.849Z,70.40
2022-07-31T18:51:25.219Z,70.70
2022-07-31T18:53:54.461Z,71.00
2022-07-31T18:56:23.750Z,71.30
2022-07-31T18:58:51.482Z,71.50
2022-07-31T19:01:18.799Z,71.80
2022-07-31T19:03:46.611Z,72.10
2022-07-31T19:06:13.848Z,72.40
2022-07-31T19:08:41.089Z,72.70
2022-07-31T19:11:08.272Z,73.00
2022-07-31T19:13:35.663Z,73.30
2022-07-31T19:16:02.908Z,73.50
2022-07-31T19:18:30.096Z,74.00
2022-07-31T19:21:23.009Z,74.60
2022-07-31T19:23:44.695Z,74.80
2022-07-31T19:26:11.865Z,75.00
2022-07-31T19:28:45.315Z,75.20
2022-07-31T19:31:13.182Z,75.70
2022-07-31T19:33:40.750Z,75.90
2022-07-31T19:36:08.287Z,76.50
2022-07-31T19:38:38.195Z,76.90
2022-07-31T19:41:05.382Z,77.30
2022-07-31T19:43:33.109Z,77.50
2022-07-31T19:46:11.305Z,77.60
2022-07-31T19:48:41.035Z,77.90
2022-07-31T19:51:08.851Z,78.10
2022-07-31T19:53:36.092Z,78.20
2022-07-31T19:56:05.611Z,78.50
2022-07-31T19:58:34.582Z,78.60
2022-07-31T20:01:05.245Z,78.90
2022-07-31T20:03:32.795Z,78.50
2022-07-31T20:06:00.280Z,79.10
2022-07-31T20:08:30.953Z,79.90
2022-07-31T20:11:03.113Z,79.80
2022-07-31T20:13:30.992Z,80.10
2022-07-31T20:15:58.288Z,80.30
2022-07-31T20:18:29.016Z,80.40
2022-07-31T20:20:57.949Z,80.50
2022-07-31T20:23:28.137Z,80.70
2022-07-31T20:25:55.428Z,80.70
2022-07-31T20:28:22.818Z,80.80
2022-07-31T20:30:49.998Z,81.00
2022-07-31T20:33:17.251Z,81.20
2022-07-31T20:35:48.555Z,81.30
2022-07-31T20:38:18.451Z,81.10
2022-07-31T20:40:52.878Z,80.70
2022-07-31T20:43:27.018Z,80.60
2022-07-31T20:45:57.281Z,80.90
2022-07-31T20:48:30.992Z,81.20
2022-07-31T20:51:02.604Z,80.60
2022-07-31T20:53:30.115Z,80.60
2022-07-31T20:55:57.346Z,80.30
2022-07-31T20:58:24.807Z,80.60
2022-07-31T21:00:52.347Z,80.60
2022-07-31T21:03:19.702Z,80.90
2022-07-31T21:05:47.111Z,80.80
2022-07-31T21:08:14.343Z,81.20
2022-07-31T21:10:41.627Z,81.20
2022-07-31T21:13:09.063Z,81.30
2022-07-31T21:15:43.229Z,81.70
2022-07-31T21:18:13.110Z,81.70
2022-07-31T21:20:49.611Z,81.80
2022-07-31T21:23:20.659Z,82.20
2022-07-31T21:25:48.054Z,82.30
2022-07-31T21:28:15.513Z,82.80
2022-07-31T21:30:42.878Z,83.00
2022-07-31T21:33:10.358Z,83.30
2022-07-31T21:35:39.681Z,83.50
2022-07-31T21:38:10.240Z,84.00
2022-07-31T21:40:39.555Z,83.90
2022-07-31T21:43:06.991Z,84.00
2022-07-31T21:45:41.224Z,84.60
2022-07-31T21:48:18.509Z,84.90
2022-07-31T21:50:45.978Z,84.80
2022-07-31T21:53:13.446Z,84.90
2022-07-31T21:55:40.832Z,84.90
2022-07-31T21:58:08.301Z,85.00
2022-07-31T22:00:35.798Z,85.20
2022-07-31T22:03:03.236Z,85.90
2022-07-31T22:05:49.386Z,85.70
2022-07-31T22:08:16.664Z,85.70
2022-07-31T22:10:44.039Z,86.80
2022-07-31T22:13:11.456Z,86.20
2022-07-31T22:15:58.200Z,86.30
2022-07-31T22:18:28.054Z,86.30
2022-07-31T22:20:55.402Z,86.60
2022-07-31T22:23:23.665Z,87.00
2022-07-31T22:25:50.876Z,87.10
2022-07-31T22:28:20.019Z,87.40
2022-07-31T22:30:47.506Z,87.40
2022-07-31T22:33:14.894Z,87.60
2022-07-31T22:35:42.190Z,87.60
2022-07-31T22:38:11.424Z,87.70
2022-07-31T22:40:38.776Z,88.00
2022-07-31T22:43:47.455Z,89.20
2022-07-31T22:45:54.430Z,88.40
2022-07-31T22:48:22.784Z,88.60
2022-07-31T22:50:50.027Z,88.70
2022-07-31T22:53:17.574Z,88.70
2022-07-31T22:55:44.752Z,88.80
2022-07-31T22:58:14.924Z,89.10
2022-07-31T23:00:42.449Z,88.90
2022-07-31T23:03:09.661Z,89.10
2022-07-31T23:06:27.984Z,89.30
2022-07-31T23:08:24.055Z,89.50
2022-07-31T23:10:51.299Z,89.40
2022-07-31T23:13:18.479Z,89.30
2022-07-31T23:15:45.753Z,90.00
2022-07-31T23:18:12.906Z,89.80
2022-07-31T23:20:40.187Z,89.80
2022-07-31T23:23:07.550Z,90.00
2022-07-31T23:25:35.080Z,90.10
2022-07-31T23:28:02.301Z,90.10
2022-07-31T23:30:29.504Z,90.20
2022-07-31T23:32:56.718Z,90.20
2022-07-31T23:35:23.890Z,90.30
2022-07-31T23:37:51.079Z,90.30
2022-07-31T23:40:18.246Z,90.50
2022-07-31T23:42:45.417Z,90.30
2022-07-31T23:45:15.946Z,90.40
2022-07-31T23:47:44.662Z,90.40
2022-07-31T23:50:14.135Z,90.30
2022-07-31T23:52:44.742Z,90.30
2022-07-31T23:55:12.263Z,90.20
2022-07-31T23:57:40.704Z,90.40
